Time;durP1;ratioP1;P1;durP2;ratioP2;P2;SDS_P1;SDS_P2;PMS_P1;PMS_P2;Temp;Humidity;BMP_temperature;BMP_pressure;BME280_temperature;BME280_humidity;BME280_pressure;Samples;Min_cycle;Max_cycle;Signal;HPM_P1;HPM_P2
2023/09/22 00:02:02;;;;;;;0.63;0.63;;;;;;;7.13;100.00;97954.84;7395601;19;20042;-81
2023/09/22 00:04:30;;;;;;;0.30;0.30;;;;;;;7.26;100.00;97946.81;7394093;19;20026;-81
2023/09/22 00:06:56;;;;;;;0.40;0.40;;;;;;;7.45;100.00;97950.63;7393041;19;20007;-81
2023/09/22 00:09:22;;;;;;;1.65;0.68;;;;;;;7.09;100.00;97946.03;7397397;19;20089;-81
2023/09/22 00:11:48;;;;;;;0.68;0.50;;;;;;;7.19;100.00;97957.63;7393679;19;20491;-81
2023/09/22 00:14:15;;;;;;;0.30;0.30;;;;;;;7.08;100.00;97947.25;7393386;19;20478;-81
2023/09/22 00:16:41;;;;;;;0.57;0.57;;;;;;;6.92;100.00;97950.75;7395349;19;20018;-81
2023/09/22 00:19:08;;;;;;;0.40;0.40;;;;;;;6.86;100.00;97958.25;7396757;19;20038;-81
2023/09/22 00:21:35;;;;;;;0.50;0.50;;;;;;;6.62;100.00;97955.13;7397760;19;20027;-81
2023/09/22 00:24:02;;;;;;;1.17;1.17;;;;;;;6.58;100.00;97949.06;7393464;19;20456;-81
2023/09/22 00:26:28;;;;;;;0.30;0.30;;;;;;;6.48;100.00;97956.03;7394400;19;20074;-81
2023/09/22 00:28:56;;;;;;;0.60;0.60;;;;;;;6.31;100.00;97963.47;7394366;19;20078;-81
2023/09/22 00:31:22;;;;;;;0.50;0.50;;;;;;;6.39;100.00;97961.78;7392698;19;20532;-81
2023/09/22 00:33:48;;;;;;;0.80;0.80;;;;;;;6.31;100.00;97952.41;7392900;19;20018;-81
2023/09/22 00:36:16;;;;;;;0.40;0.40;;;;;;;6.42;100.00;97958.00;7391610;19;20022;-81
2023/09/22 00:38:42;;;;;;;0.30;0.30;;;;;;;6.51;100.00;97957.81;7392399;19;20010;-81
2023/09/22 00:41:08;;;;;;;0.50;0.50;;;;;;;6.40;100.00;97955.00;7388887;19;20459;-81
2023/09/22 00:43:35;;;;;;;0.60;0.60;;;;;;;6.26;100.00;97958.69;7392301;19;20376;-81
2023/09/22 00:46:01;;;;;;;0.47;0.47;;;;;;;6.43;100.00;97956.78;7391317;19;20513;-81
2023/09/22 00:48:30;;;;;;;0.30;0.30;;;;;;;6.53;100.00;97960.84;7393544;19;20014;-81
2023/09/22 00:50:56;;;;;;;0.98;0.90;;;;;;;6.54;100.00;97959.63;7395289;19;20037;-81
2023/09/22 00:53:29;;;;;;;0.60;0.57;;;;;;;6.34;100.00;97970.78;7392009;19;20103;-81
2023/09/22 00:55:56;;;;;;;0.47;0.47;;;;;;;6.73;100.00;97966.25;7393133;19;20018;-81
2023/09/22 00:58:22;;;;;;;0.60;0.60;;;;;;;6.48;100.00;97967.09;7392341;19;20014;-81
2023/09/22 01:00:49;;;;;;;2.13;0.57;;;;;;;6.92;100.00;97967.34;7393498;19;20022;-81
2023/09/22 01:03:16;;;;;;;0.30;0.30;;;;;;;6.83;100.00;97956.47;7391324;19;20015;-81
2023/09/22 01:05:45;;;;;;;3.78;0.52;;;;;;;6.90;100.00;97964.31;7389610;19;20023;-81
2023/09/22 01:08:12;;;;;;;0.55;0.55;;;;;;;6.78;100.00;97971.03;7391261;19;20042;-80
2023/09/22 01:10:45;;;;;;;4.18;0.65;;;;;;;6.81;100.00;97972.81;7395787;19;20018;-81
2023/09/22 01:13:11;;;;;;;0.60;0.60;;;;;;;6.75;100.00;97972.03;7391455;19;20018;-81
2023/09/22 01:15:41;;;;;;;0.40;0.40;;;;;;;7.14;100.00;97975.75;7391549;19;20019;-81
2023/09/22 01:18:07;;;;;;;5.38;0.80;;;;;;;7.21;100.00;97978.00;7390495;19;20025;-80
2023/09/22 01:20:44;;;;;;;1.10;0.60;;;;;;;7.23;100.00;97969.97;7396743;19;20018;-81
2023/09/22 01:23:14;;;;;;;0.60;0.60;;;;;;;7.23;100.00;97969.97;7389295;19;20820;-81
2023/09/22 01:25:41;;;;;;;0.30;0.30;;;;;;;7.58;100.00;97967.53;7390080;19;20018;-80
2023/09/22 01:28:08;;;;;;;4.28;2.92;;;;;;;7.88;100.00;97969.84;7393800;19;20014;-81
2023/09/22 01:30:35;;;;;;;0.32;0.32;;;;;;;7.32;100.00;97978.03;7397604;19;20074;-81
2023/09/22 01:33:04;;;;;;;0.47;0.47;;;;;;;7.68;100.00;97981.16;7392964;19;20883;-81
2023/09/22 01:35:32;;;;;;;1.10;1.02;;;;;;;7.51;100.00;97984.63;7391609;19;20201;-81
2023/09/22 01:38:14;;;;;;;0.40;0.40;;;;;;;7.31;100.00;97982.09;7391356;19;20074;-81
2023/09/22 01:40:41;;;;;;;0.85;0.50;;;;;;;7.09;100.00;97976.47;7391019;19;20022;-82
2023/09/22 01:43:08;;;;;;;0.50;0.50;;;;;;;6.96;100.00;97984.47;7390832;19;20018;-81
2023/09/22 01:45:34;;;;;;;16.45;1.15;;;;;;;6.92;100.00;97989.47;7392502;19;20010;-81
2023/09/22 01:48:01;;;;;;;2.38;1.00;;;;;;;6.89;100.00;97991.22;7390110;19;20022;-81
2023/09/22 01:50:27;;;;;;;1.50;1.40;;;;;;;6.90;100.00;97997.50;7396013;19;20045;-81
2023/09/22 01:52:53;;;;;;;0.40;0.40;;;;;;;6.74;100.00;97996.16;7389624;19;20018;-81
2023/09/22 01:55:20;;;;;;;0.20;0.20;;;;;;;6.71;100.00;97994.38;7392245;19;20464;-81
2023/09/22 01:57:50;;;;;;;0.65;0.65;;;;;;;6.68;100.00;97997.38;7392268;19;20402;-81
2023/09/22 02:00:18;;;;;;;0.45;0.45;;;;;;;7.05;100.00;97998.09;7394738;19;20014;-81
2023/09/22 02:02:48;;;;;;;0.40;0.40;;;;;;;6.68;100.00;97997.38;7390132;19;20391;-81
2023/09/22 02:05:14;;;;;;;0.40;0.40;;;;;;;7.08;100.00;98001.88;7390072;19;20074;-81
2023/09/22 02:07:42;;;;;;;0.22;0.22;;;;;;;6.72;100.00;98003.44;7388867;19;20015;-81
2023/09/22 02:10:13;;;;;;;1.95;0.60;;;;;;;7.00;100.00;97998.81;7393562;19;20030;-81
2023/09/22 02:12:40;;;;;;;0.40;0.40;;;;;;;6.97;100.00;97997.06;7390421;19;20014;-81
2023/09/22 02:15:10;;;;;;;0.68;0.68;;;;;;;7.23;100.00;97992.13;7388007;19;20010;-81
2023/09/22 02:17:37;;;;;;;0.47;0.47;;;;;;;6.86;100.00;98002.53;7390549;19;20022;-80
2023/09/22 02:20:22;;;;;;;1.13;1.13;;;;;;;7.20;100.00;98009.72;7392671;19;20018;-81
2023/09/22 02:22:50;;;;;;;0.50;0.50;;;;;;;6.60;100.00;98007.41;7391369;19;20015;-81
2023/09/22 02:25:17;;;;;;;6.22;1.33;;;;;;;6.92;100.00;98000.53;7388486;19;20022;-81
2023/09/22 02:27:44;;;;;;;0.35;0.35;;;;;;;6.58;100.00;98009.91;7386573;19;20022;-81
2023/09/22 02:30:10;;;;;;;0.40;0.40;;;;;;;6.62;100.00;98007.66;7393586;19;20014;-81
2023/09/22 02:32:39;;;;;;;0.30;0.30;;;;;;;6.59;100.00;98005.88;7390683;19;20045;-81
2023/09/22 02:35:05;;;;;;;0.30;0.30;;;;;;;6.49;100.00;98001.81;7389910;19;20022;-81
2023/09/22 02:37:31;;;;;;;0.43;0.43;;;;;;;6.18;100.00;98010.09;7391885;19;20019;-81
2023/09/22 02:39:58;;;;;;;2.60;1.33;;;;;;;6.13;100.00;98004.06;7391722;19;20027;-81
2023/09/22 02:42:24;;;;;;;0.50;0.50;;;;;;;5.75;100.00;98007.22;7390593;19;20015;-81
2023/09/22 02:44:51;;;;;;;1.92;0.93;;;;;;;6.00;100.00;98000.94;7387805;19;20073;-81
2023/09/22 02:47:17;;;;;;;0.38;0.38;;;;;;;5.83;100.00;98007.53;7387865;19;20021;-81
2023/09/22 02:49:43;;;;;;;1.40;0.40;;;;;;;5.91;100.00;98009.38;7391941;19;20042;-81
2023/09/22 02:52:10;;;;;;;1.17;0.90;;;;;;;5.57;100.00;98006.75;7392887;19;20021;-80
2023/09/22 02:54:36;;;;;;;0.52;0.52;;;;;;;5.95;100.00;98015.47;7386817;19;20017;-81
2023/09/22 02:57:03;;;;;;;0.77;0.77;;;;;;;5.57;100.00;98013.03;7389003;19;20297;-81
2023/09/22 02:59:31;;;;;;;0.57;0.52;;;;;;;6.08;100.00;98007.53;7390727;19;20019;-81
2023/09/22 03:01:57;;;;;;;0.63;0.63;;;;;;;6.13;100.00;98013.59;7389266;19;20017;-81
2023/09/22 03:04:23;;;;;;;0.68;0.68;;;;;;;6.11;100.00;98005.78;7387576;19;20018;-81
2023/09/22 03:06:50;;;;;;;0.47;0.47;;;;;;;6.02;100.00;97997.69;7387643;19;20107;-81
2023/09/22 03:09:17;;;;;;;0.20;0.20;;;;;;;6.14;100.00;98004.81;7391152;19;20023;-81
2023/09/22 03:11:43;;;;;;;0.28;0.28;;;;;;;6.20;100.00;98002.09;7388158;19;20036;-81
2023/09/22 03:14:09;;;;;;;0.35;0.35;;;;;;;6.30;100.00;97997.91;7388320;19;20416;-81
2023/09/22 03:16:36;;;;;;;0.65;0.65;;;;;;;6.34;100.00;98006.72;7388448;19;20018;-81
2023/09/22 03:19:03;;;;;;;0.57;0.57;;;;;;;6.09;100.00;98003.53;7389492;19;20548;-81
2023/09/22 03:21:29;;;;;;;0.50;0.50;;;;;;;6.17;100.00;98003.06;7390336;19;20030;-81
2023/09/22 03:23:55;;;;;;;0.73;0.60;;;;;;;6.02;100.00;98008.75;7381548;19;20018;-81
2023/09/22 03:26:22;;;;;;;0.60;0.60;;;;;;;5.98;100.00;97997.91;7381802;19;20075;-81
2023/09/22 03:28:48;;;;;;;1.30;0.68;;;;;;;5.95;100.00;97992.59;7384368;19;20863;-81
2023/09/22 03:31:22;;;;;;;0.43;0.43;;;;;;;5.87;100.00;97995.03;7390713;19;20031;-81
2023/09/22 03:33:49;;;;;;;0.82;0.82;;;;;;;5.81;100.00;97999.72;7391601;19;20027;-81
2023/09/22 03:36:15;;;;;;;0.65;0.65;;;;;;;5.73;100.00;98009.69;7392753;19;20018;-81
2023/09/22 03:38:47;;;;;;;0.70;0.70;;;;;;;5.70;100.00;98010.66;7394309;19;20716;-81
2023/09/22 03:41:15;;;;;;;0.40;0.40;;;;;;;5.72;100.00;98012.94;7394989;19;20031;-81
2023/09/22 03:43:43;;;;;;;0.40;0.40;;;;;;;5.63;100.00;98011.09;7393325;19;20042;-80
2023/09/22 03:46:11;;;;;;;1.25;1.15;;;;;;;5.63;100.00;98008.31;7394363;19;20064;-81
2023/09/22 03:48:38;;;;;;;3.00;2.25;;;;;;;5.48;100.00;98009.69;7394678;19;20018;-80
2023/09/22 03:51:05;;;;;;;5.25;1.20;;;;;;;5.63;100.00;98016.63;7397334;19;20022;-81
2023/09/22 03:53:31;;;;;;;2.08;0.95;;;;;;;5.63;100.00;98008.31;7392967;19;20022;-80
2023/09/22 03:55:57;;;;;;;0.50;0.30;;;;;;;5.71;100.00;98006.69;7396327;19;20374;-81
2023/09/22 03:58:23;;;;;;;0.28;0.28;;;;;;;5.79;100.00;98013.28;7394032;19;20334;-81
2023/09/22 04:00:52;;;;;;;0.38;0.38;;;;;;;5.89;100.00;98014.63;7399825;19;20025;-80
2023/09/22 04:03:18;;;;;;;0.55;0.55;;;;;;;6.13;100.00;98009.56;7392879;19;20015;-81
2023/09/22 04:05:45;;;;;;;0.40;0.40;;;;;;;5.99;100.00;98007.72;7393877;19;20481;-81
2023/09/22 04:08:11;;;;;;;0.32;0.32;;;;;;;6.03;100.00;98011.00;7394128;19;20018;-80
2023/09/22 04:10:37;;;;;;;0.50;0.50;;;;;;;6.26;100.00;98011.19;7397987;19;20020;-81
2023/09/22 04:13:03;;;;;;;0.55;0.55;;;;;;;6.43;100.00;98014.84;7393350;19;20010;-81
2023/09/22 04:15:30;;;;;;;0.80;0.80;;;;;;;6.37;100.00;98014.78;7393821;19;20361;-81
2023/09/22 04:17:57;;;;;;;0.32;0.32;;;;;;;6.33;100.00;98007.97;7393485;19;20048;-81
2023/09/22 04:20:29;;;;;;;0.47;0.47;;;;;;;5.96;100.00;98011.44;7398888;19;20519;-81
2023/09/22 04:22:56;;;;;;;0.40;0.40;;;;;;;6.41;100.00;98011.81;7394207;19;20480;-80
2023/09/22 04:25:29;;;;;;;1.75;1.65;;;;;;;6.46;100.00;98013.84;7394559;19;20030;-81
2023/09/22 04:27:57;;;;;;;0.25;0.25;;;;;;;6.45;100.00;98012.34;7394890;19;20029;-80
2023/09/22 04:30:25;;;;;;;0.50;0.50;;;;;;;6.53;100.00;98007.84;7397865;19;20014;-81
2023/09/22 04:32:54;;;;;;;1.70;0.68;;;;;;;6.52;100.00;98017.41;7393852;19;20022;-81
2023/09/22 04:35:21;;;;;;;0.40;0.40;;;;;;;6.63;100.00;98015.47;7394427;19;20018;-80
2023/09/22 04:37:47;;;;;;;0.17;0.17;;;;;;;6.61;100.00;98014.44;7397226;19;20026;-81
2023/09/22 04:40:27;;;;;;;0.20;0.20;;;;;;;6.87;100.00;98010.31;7398018;19;20022;-81
2023/09/22 04:42:54;;;;;;;0.30;0.30;;;;;;;7.25;100.00;98017.31;7394558;19;20014;-81
2023/09/22 04:45:21;;;;;;;3.13;0.43;;;;;;;7.30;100.00;98016.53;7392752;19;20014;-81
2023/09/22 04:47:48;;;;;;;0.20;0.20;;;;;;;7.30;100.00;98024.84;7390683;19;20027;-81
2023/09/22 04:50:17;;;;;;;0.30;0.30;;;;;;;7.24;100.00;98015.78;7396995;19;20014;-81
2023/09/22 04:52:49;;;;;;;0.32;0.32;;;;;;;7.19;100.00;98010.97;7395965;19;20035;-81
2023/09/22 04:55:16;;;;;;;0.50;0.50;;;;;;;7.16;100.00;98013.97;7392331;19;20010;-81
2023/09/22 04:57:43;;;;;;;0.55;0.55;;;;;;;7.11;100.00;98023.00;7394672;19;20014;-81
2023/09/22 05:00:16;;;;;;;0.47;0.47;;;;;;;7.03;100.00;98021.97;7396709;19;20350;-81
2023/09/22 05:02:43;;;;;;;0.95;0.95;;;;;;;7.14;100.00;98025.56;7393581;19;20032;-81
2023/09/22 05:05:11;;;;;;;0.30;0.30;;;;;;;6.95;100.00;98027.22;7390217;19;20357;-80
2023/09/22 05:07:38;;;;;;;0.20;0.20;;;;;;;6.98;100.00;98029.00;7391440;19;20014;-80
2023/09/22 05:10:05;;;;;;;0.47;0.47;;;;;;;6.96;100.00;98022.44;7395343;19;20018;-80
2023/09/22 05:12:32;;;;;;;0.50;0.50;;;;;;;6.99;100.00;98027.00;7391592;19;20026;-81
2023/09/22 05:14:58;;;;;;;0.68;0.68;;;;;;;7.06;100.00;98032.78;7389310;19;20010;-81
2023/09/22 05:17:24;;;;;;;0.30;0.30;;;;;;;6.98;100.00;98026.22;7392830;19;20022;-81
2023/09/22 05:19:51;;;;;;;0.40;0.40;;;;;;;6.76;100.00;98031.63;7393889;19;20492;-81
2023/09/22 05:22:17;;;;;;;0.40;0.40;;;;;;;6.64;100.00;98033.59;7392557;19;20022;-81
2023/09/22 05:24:45;;;;;;;0.40;0.40;;;;;;;6.57;100.00;98049.88;7389905;19;20022;-81
2023/09/22 05:27:12;;;;;;;0.40;0.40;;;;;;;6.48;100.00;98050.81;7390729;19;20018;-81
2023/09/22 05:29:38;;;;;;;2.15;0.45;;;;;;;6.97;100.00;98057.94;7394487;19;20022;-81
2023/09/22 05:32:05;;;;;;;0.30;0.30;;;;;;;7.08;100.00;98041.34;7393448;19;20014;-81
2023/09/22 05:34:31;;;;;;;0.40;0.40;;;;;;;7.10;100.00;98038.88;7391752;19;20481;-81
2023/09/22 05:36:57;;;;;;;0.38;0.38;;;;;;;6.99;100.00;98038.81;7393527;19;20345;-81
2023/09/22 05:39:23;;;;;;;0.38;0.38;;;;;;;6.57;100.00;98044.34;7394073;19;20021;-81
2023/09/22 05:41:49;;;;;;;0.30;0.30;;;;;;;6.63;100.00;98050.66;7391029;19;20361;-81
2023/09/22 05:44:18;;;;;;;0.30;0.30;;;;;;;6.61;100.00;98048.38;7391801;19;20059;-81
2023/09/22 05:46:44;;;;;;;0.50;0.50;;;;;;;6.61;100.00;98050.38;7391112;19;20491;-81
2023/09/22 05:49:15;;;;;;;1.38;1.30;;;;;;;6.58;100.00;98048.63;7392373;19;20014;-81
2023/09/22 05:51:41;;;;;;;0.50;0.50;;;;;;;6.64;100.00;98052.19;7394872;19;20019;-81
2023/09/22 05:54:08;;;;;;;0.55;0.45;;;;;;;6.51;100.00;98065.66;7390769;19;20026;-81
2023/09/22 05:56:35;;;;;;;0.50;0.50;;;;;;;7.11;100.00;98053.44;7392003;19;20029;-81
2023/09/22 05:59:03;;;;;;;0.32;0.32;;;;;;;7.23;100.00;98057.81;7391097;19;20047;-81
2023/09/22 06:01:30;;;;;;;2.05;1.00;;;;;;;7.30;100.00;98063.63;7390773;19;20367;-82
2023/09/22 06:03:57;;;;;;;20.67;1.88;;;;;;;7.36;100.00;98067.16;7390619;19;20023;-80
2023/09/22 06:06:23;;;;;;;9.57;2.17;;;;;;;7.17;100.00;98070.88;7389610;19;20050;-80
2023/09/22 06:08:50;;;;;;;0.95;0.95;;;;;;;7.33;100.00;98073.72;7390256;19;20440;-80
2023/09/22 06:11:17;;;;;;;0.98;0.95;;;;;;;7.47;100.00;98083.81;7391627;19;20365;-80
2023/09/22 06:13:43;;;;;;;1.15;1.15;;;;;;;7.58;100.00;98074.78;7389922;19;20085;-80
2023/09/22 06:16:12;;;;;;;1.75;0.95;;;;;;;7.34;100.00;98077.97;7390624;19;20018;-79
2023/09/22 06:18:40;;;;;;;2.10;2.00;;;;;;;7.26;100.00;98074.16;7390335;19;20048;-80
2023/09/22 06:21:06;;;;;;;0.90;0.90;;;;;;;6.97;100.00;98080.06;7392184;19;20014;-79
2023/09/22 06:23:32;;;;;;;0.70;0.70;;;;;;;7.07;100.00;98084.16;7390409;19;20018;-80
2023/09/22 06:26:08;;;;;;;1.08;0.98;;;;;;;7.27;100.00;98086.78;7388891;19;20034;-80
2023/09/22 06:28:34;;;;;;;0.40;0.40;;;;;;;6.98;100.00;98087.09;7389549;19;20015;-80
2023/09/22 06:31:02;;;;;;;3.50;0.70;;;;;;;7.37;100.00;98090.84;7395212;19;20007;-80
2023/09/22 06:33:30;;;;;;;0.32;0.32;;;;;;;7.19;100.00;98091.25;7390948;19;20011;-79
2023/09/22 06:35:58;;;;;;;8.20;0.70;;;;;;;7.26;100.00;98093.56;7390952;19;20015;-80
2023/09/22 06:38:24;;;;;;;0.80;0.80;;;;;;;7.56;100.00;98096.69;7390477;19;20011;-80
2023/09/22 06:40:55;;;;;;;0.43;0.40;;;;;;;7.87;100.00;98090.25;7390392;19;20019;-80
2023/09/22 06:43:24;;;;;;;0.67;0.67;;;;;;;8.24;100.00;98096.38;7390887;19;20041;-80
2023/09/22 06:45:56;;;;;;;0.80;0.80;;;;;;;8.36;100.00;98097.94;7388330;19;20261;-80
2023/09/22 06:48:25;;;;;;;;;;;;;;;8.13;100.00;98099.13;7390488;19;20014;-80
2023/09/22 06:50:53;;;;;;;0.88;0.88;;;;;;;8.66;100.00;98101.75;7391507;19;19915;-80
2023/09/22 06:53:21;;;;;;;4.68;1.00;;;;;;;9.13;100.00;98089.56;7388892;19;20362;-80
2023/09/22 06:55:48;;;;;;;6.32;1.02;;;;;;;8.14;100.00;98095.13;7388929;19;20021;-80
2023/09/22 06:58:14;;;;;;;1.38;0.93;;;;;;;8.94;100.00;98099.66;7388816;19;20015;-80
2023/09/22 07:00:40;;;;;;;1.48;1.38;;;;;;;8.53;100.00;98103.50;7388182;19;20041;-80
2023/09/22 07:03:08;;;;;;;3.40;0.80;;;;;;;8.97;100.00;98106.22;7389939;19;20032;-80
2023/09/22 07:05:34;;;;;;;0.43;0.43;;;;;;;9.04;100.00;98106.50;7393836;19;20035;-80
2023/09/22 07:08:03;;;;;;;6.90;0.85;;;;;;;8.91;100.00;98106.25;7392963;19;20022;-80
2023/09/22 07:10:30;;;;;;;1.40;1.05;;;;;;;8.98;100.00;98105.75;7399235;19;20483;-80
2023/09/22 07:12:58;;;;;;;1.98;1.02;;;;;;;8.77;100.00;98117.63;7395098;19;20416;-80
2023/09/22 07:15:24;;;;;;;2.67;1.33;;;;;;;9.59;100.00;98113.16;7397657;19;20348;-80
2023/09/22 07:17:51;;;;;;;0.55;0.55;;;;;;;9.15;100.00;98125.16;7397206;19;20042;-80
2023/09/22 07:20:17;;;;;;;0.60;0.60;;;;;;;8.95;100.00;98117.84;7396461;19;20018;-80
2023/09/22 07:22:44;;;;;;;0.50;0.43;;;;;;;9.00;100.00;98125.44;7397547;19;20333;-80
2023/09/22 07:25:11;;;;;;;0.22;0.22;;;;;;;9.11;100.00;98121.88;7394075;19;20078;-80
2023/09/22 07:27:39;;;;;;;2.38;0.68;;;;;;;9.19;100.00;98125.66;7394223;19;20018;-80
2023/09/22 07:30:09;;;;;;;0.40;0.40;;;;;;;9.40;100.00;98135.19;7394778;19;20022;-80
2023/09/22 07:32:37;;;;;;;0.77;0.77;;;;;;;9.60;100.00;98126.53;7396889;19;20029;-80
2023/09/22 07:35:04;;;;;;;0.50;0.50;;;;;;;9.82;100.00;98128.47;7395130;19;20018;-80
2023/09/22 07:37:30;;;;;;;5.28;0.98;;;;;;;10.02;100.00;98128.13;7398504;19;20022;-80
2023/09/22 07:39:56;;;;;;;0.77;0.77;;;;;;;10.19;100.00;98120.47;7397142;19;20014;-81
2023/09/22 07:42:22;;;;;;;0.55;0.55;;;;;;;10.37;100.00;98125.41;7397907;19;20018;-80
2023/09/22 07:44:49;;;;;;;0.45;0.40;;;;;;;10.47;100.00;98134.97;7396367;19;20033;-80
2023/09/22 07:47:15;;;;;;;0.45;0.45;;;;;;;10.60;100.00;98131.59;7409489;19;20014;-80
2023/09/22 07:49:42;;;;;;;0.32;0.28;;;;;;;10.68;100.00;98130.50;7394478;19;20411;-79
2023/09/22 07:52:11;;;;;;;0.85;0.85;;;;;;;11.89;100.00;98136.13;7398020;19;20073;-80
2023/09/22 07:54:37;;;;;;;0.57;0.45;;;;;;;11.50;100.00;98133.03;7391769;19;20381;-80
2023/09/22 07:57:04;;;;;;;0.50;0.50;;;;;;;11.73;100.00;98142.69;7395386;19;20006;-80
2023/09/22 07:59:30;;;;;;;0.40;0.40;;;;;;;11.33;100.00;98140.81;7394663;19;20010;-80
2023/09/22 08:01:59;;;;;;;0.55;0.55;;;;;;;11.32;100.00;98144.88;7393373;19;20583;-80
2023/09/22 08:04:26;;;;;;;1.58;1.17;;;;;;;11.16;100.00;98154.16;7398401;19;20030;-81
2023/09/22 08:06:53;;;;;;;0.40;0.40;;;;;;;11.66;100.00;98151.59;7393903;19;20017;-79
2023/09/22 08:09:20;;;;;;;0.75;0.50;;;;;;;11.90;100.00;98154.41;7396891;19;20022;-81
2023/09/22 08:11:47;;;;;;;2.83;0.73;;;;;;;12.03;100.00;98154.47;7394268;19;20534;-82
2023/09/22 08:14:13;;;;;;;1.00;1.00;;;;;;;12.13;100.00;98155.63;7393941;19;20031;-80
2023/09/22 08:16:40;;;;;;;0.82;0.70;;;;;;;12.21;100.00;98160.59;7397725;19;20468;-80
2023/09/22 08:19:11;;;;;;;1.15;0.88;;;;;;;12.37;100.00;98163.16;7395167;19;20376;-81
2023/09/22 08:21:38;;;;;;;;;;;;;;;12.42;100.00;98161.56;7397267;19;20030;-80
2023/09/22 08:24:05;;;;;;;0.65;0.35;;;;;;;12.63;100.00;98151.34;7392374;19;19915;-79
2023/09/22 08:26:31;;;;;;;1.27;0.65;;;;;;;12.78;100.00;98157.22;7393750;19;20365;-79
2023/09/22 08:28:57;;;;;;;6.18;0.60;;;;;;;12.90;100.00;98159.31;7397551;19;20508;-79
2023/09/22 08:31:29;;;;;;;0.68;0.68;;;;;;;13.02;100.00;98151.50;7394990;19;20018;-79
2023/09/22 08:33:55;;;;;;;2.15;0.52;;;;;;;13.17;100.00;98157.34;7391785;19;20022;-79
2023/09/22 08:36:21;;;;;;;0.50;0.50;;;;;;;13.22;100.00;98153.72;7392214;19;20018;-79
2023/09/22 08:38:48;;;;;;;0.65;0.20;;;;;;;13.30;100.00;98151.78;7392382;19;20253;-79
2023/09/22 08:41:15;;;;;;;0.28;0.28;;;;;;;13.49;100.00;98158.06;7398633;19;20010;-78
2023/09/22 08:43:41;;;;;;;0.75;0.45;;;;;;;13.63;100.00;98158.81;7391265;19;20019;-79
2023/09/22 08:46:07;;;;;;;0.68;0.28;;;;;;;13.65;100.00;98165.38;7392227;19;20022;-79
2023/09/22 08:48:34;;;;;;;2.13;0.35;;;;;;;13.72;100.00;98166.03;7394326;19;20018;-79
2023/09/22 08:51:03;;;;;;;0.43;0.20;;;;;;;13.76;100.00;98174.84;7397318;19;20082;-80
2023/09/22 08:53:29;;;;;;;0.22;0.13;;;;;;;13.83;100.00;98174.22;7393413;19;20025;-80
2023/09/22 08:55:56;;;;;;;0.45;0.25;;;;;;;13.89;100.00;98177.66;7392176;19;20383;-81
2023/09/22 08:58:22;;;;;;;0.60;0.40;;;;;;;14.00;100.00;98183.78;7397510;19;20043;-82
2023/09/22 09:00:51;;;;;;;0.15;0.15;;;;;;;14.10;100.00;98186.88;7395431;19;20015;-81
2023/09/22 09:03:20;;;;;;;0.30;0.30;;;;;;;14.22;100.00;98188.19;7391267;19;20367;-80
2023/09/22 09:05:47;;;;;;;0.20;0.20;;;;;;;14.27;100.00;98192.91;7391626;19;20014;-80
2023/09/22 09:08:15;;;;;;;0.90;0.60;;;;;;;14.48;100.00;98202.16;7392439;19;20011;-81
2023/09/22 09:10:43;;;;;;;2.30;0.35;;;;;;;14.55;100.00;98195.91;7395335;19;20026;-80
2023/09/22 09:13:14;;;;;;;0.10;0.10;;;;;;;14.52;100.00;98202.56;7391106;19;20019;-81
2023/09/22 09:15:43;;;;;;;0.10;0.10;;;;;;;14.58;100.00;98194.03;7390980;19;20010;-81
2023/09/22 09:18:11;;;;;;;1.45;0.63;;;;;;;14.71;100.00;98194.75;7392023;19;20410;-80
2023/09/22 09:20:42;;;;;;;0.10;0.10;;;;;;;14.93;100.00;98194.25;7394515;19;20361;-80
2023/09/22 09:23:15;;;;;;;;;;;;;;;15.13;100.00;98196.31;7391485;19;20025;-79
2023/09/22 09:25:53;;;;;;;0.13;0.13;;;;;;;15.34;100.00;98204.72;7389160;19;19922;-80
2023/09/22 09:28:19;;;;;;;3.05;0.40;;;;;;;15.41;100.00;98203.28;7390142;19;20023;-80
2023/09/22 09:30:51;;;;;;;1.88;0.65;;;;;;;16.08;100.00;98208.66;7391487;19;20018;-80
2023/09/22 09:33:20;;;;;;;0.25;0.25;;;;;;;16.34;100.00;98208.41;7388789;19;20019;-79
2023/09/22 09:35:46;;;;;;;3.92;0.60;;;;;;;16.34;100.00;98216.09;7391785;19;20014;-79
2023/09/22 09:38:13;;;;;;;0.47;0.47;;;;;;;15.75;100.00;98215.16;7391348;19;20458;-80
2023/09/22 09:40:39;;;;;;;0.40;0.15;;;;;;;15.88;100.00;98220.69;7391575;19;20019;-80
2023/09/22 09:43:13;;;;;;;6.68;0.47;;;;;;;15.94;100.00;98218.47;7391688;19;20017;-81
2023/09/22 09:45:56;;;;;;;0.38;0.30;;;;;;;15.97;100.00;98223.00;7390946;19;20014;-81
2023/09/22 09:48:24;;;;;;;0.52;0.30;;;;;;;16.72;100.00;98213.47;7390868;19;20019;-81
2023/09/22 09:50:53;;;;;;;10.82;0.57;;;;;;;16.64;100.00;98221.84;7395473;19;20021;-81
2023/09/22 09:53:58;;;;;;;0.10;0.00;;;;;;;17.26;100.00;98215.84;7389472;19;20019;-81
2023/09/22 09:56:26;;;;;;;0.10;0.00;;;;;;;17.25;100.00;98222.75;7387332;19;20047;-81
2023/09/22 09:58:53;;;;;;;0.43;0.38;;;;;;;17.44;100.00;98211.88;7391158;19;20499;-81
2023/09/22 10:01:19;;;;;;;0.10;0.00;;;;;;;17.35;100.00;98223.69;7391391;19;20026;-81
2023/09/22 10:03:45;;;;;;;0.10;0.10;;;;;;;16.81;100.00;98221.34;7387990;19;20500;-81
2023/09/22 10:06:13;;;;;;;0.10;0.10;;;;;;;16.49;100.00;98225.34;7391607;19;20019;-81
2023/09/22 10:08:39;;;;;;;0.13;0.13;;;;;;;16.42;100.00;98226.03;7389578;19;20503;-81
2023/09/22 10:11:08;;;;;;;5.28;0.43;;;;;;;17.44;100.00;98232.34;7394732;19;20011;-81
2023/09/22 10:13:35;;;;;;;0.10;0.10;;;;;;;21.22;100.00;98234.78;7391217;19;20337;-81
2023/09/22 10:16:04;;;;;;;0.35;0.20;;;;;;;17.54;100.00;98235.41;7389536;19;20428;-81
2023/09/22 10:18:59;;;;;;;0.10;0.00;;;;;;;17.19;100.00;98236.25;7388755;19;20015;-81
2023/09/22 10:21:33;;;;;;;0.00;0.00;;;;;;;17.34;100.00;98241.91;7388802;19;20358;-81
2023/09/22 10:24:18;;;;;;;0.10;0.00;;;;;;;17.08;100.00;98240.19;7389763;19;20023;-81
2023/09/22 10:26:56;;;;;;;2.67;0.43;;;;;;;17.30;100.00;98252.78;7391171;19;20033;-81
2023/09/22 10:29:37;;;;;;;0.10;0.10;;;;;;;16.73;100.00;98260.69;7390052;19;20006;-81
2023/09/22 10:32:18;;;;;;;0.20;0.20;;;;;;;16.85;100.00;98255.50;7390703;19;20464;-81
2023/09/22 10:34:49;;;;;;;0.10;0.10;;;;;;;16.91;100.00;98253.25;7388555;19;20035;-81
2023/09/22 10:37:31;;;;;;;0.20;0.20;;;;;;;16.76;100.00;98247.59;7388598;19;20018;-82
2023/09/22 10:40:14;;;;;;;0.20;0.10;;;;;;;16.93;100.00;98256.25;7398076;19;20020;-82
2023/09/22 10:42:42;;;;;;;0.20;0.10;;;;;;;17.04;100.00;98253.13;7397425;19;20038;-82
2023/09/22 10:45:09;;;;;;;1.75;0.73;;;;;;;16.85;100.00;98261.13;7394392;19;20010;-81
2023/09/22 10:47:43;;;;;;;0.10;0.10;;;;;;;16.80;100.00;98271.22;7395844;19;20028;-81
2023/09/22 10:50:30;;;;;;;0.10;0.00;;;;;;;16.74;100.00;98275.50;7397527;19;20022;-82
2023/09/22 10:53:05;;;;;;;0.10;0.00;;;;;;;16.81;100.00;98272.72;7398213;19;20102;-81
2023/09/22 10:55:41;;;;;;;0.10;0.00;;;;;;;17.38;100.00;98267.63;7398007;19;20014;-81
2023/09/22 10:58:21;;;;;;;0.10;0.00;;;;;;;17.56;100.00;98272.19;7397530;19;20018;-81
2023/09/22 11:00:58;;;;;;;0.35;0.05;;;;;;;17.09;100.00;98280.28;7398391;19;20015;-81
2023/09/22 11:03:24;;;;;;;0.10;0.05;;;;;;;17.05;100.00;98291.16;7396838;19;20468;-81
2023/09/22 11:06:06;;;;;;;0.08;0.08;;;;;;;17.08;100.00;98284.44;7397066;19;20046;-81
2023/09/22 11:08:48;;;;;;;0.10;0.00;;;;;;;16.90;100.00;98288.31;7395978;19;20015;-81
2023/09/22 11:11:16;;;;;;;0.30;0.15;;;;;;;16.63;100.00;98291.38;7400278;19;20052;-81
2023/09/22 11:14:02;;;;;;;0.10;0.03;;;;;;;16.77;100.00;98286.38;7400552;19;20428;-81
2023/09/22 11:16:29;;;;;;;0.15;0.13;;;;;;;17.38;100.00;98278.88;7395897;19;20021;-81
2023/09/22 11:19:06;;;;;;;0.50;0.40;;;;;;;17.23;100.00;98284.47;7395825;19;20028;-81
2023/09/22 11:21:39;;;;;;;0.10;0.00;;;;;;;17.75;100.00;98286.63;7396928;19;20014;-82
2023/09/22 11:24:06;;;;;;;0.43;0.30;;;;;;;18.02;100.00;98301.06;7392992;19;20117;-81
2023/09/22 11:26:43;;;;;;;0.32;0.17;;;;;;;18.41;100.00;98294.09;7395774;19;20018;-81
2023/09/22 11:29:09;;;;;;;0.40;0.10;;;;;;;18.55;100.00;98298.97;7395987;19;20414;-81
2023/09/22 11:31:49;;;;;;;3.22;0.40;;;;;;;17.61;100.00;98302.19;7397606;19;20037;-82
2023/09/22 11:34:19;;;;;;;1.17;0.40;;;;;;;18.24;100.00;98305.19;7395898;19;20030;-81
2023/09/22 11:36:47;;;;;;;0.20;0.20;;;;;;;18.20;100.00;98305.56;7398986;19;20515;-81
2023/09/22 11:39:29;;;;;;;0.60;0.43;;;;;;;18.68;100.00;98307.19;7396263;19;20014;-81